sensor_id;sensor_type;location;lat;lon;timestamp;pressure;altitude;pressure_sealevel;temperature;humidity
11678;BME280;5895;41.950;24.372;2022-08-05T00:00:59;87221.78;;;17.17;54.87
11678;BME280;5895;41.950;24.372;2022-08-05T00:03:28;87217.81;;;17.15;55.65
11678;BME280;5895;41.950;24.372;2022-08-05T00:05:55;87215.16;;;17.10;55.33
11678;BME280;5895;41.950;24.372;2022-08-05T00:08:23;87217.75;;;17.05;54.77
11678;BME280;5895;41.950;24.372;2022-08-05T00:10:50;87219.31;;;17.01;55.03
11678;BME280;5895;41.950;24.372;2022-08-05T00:13:18;87214.06;;;16.96;55.07
11678;BME280;5895;41.950;24.372;2022-08-05T00:15:45;87210.34;;;16.91;55.69
11678;BME280;5895;41.950;24.372;2022-08-05T00:18:13;87221.09;;;16.90;55.75
11678;BME280;5895;41.950;24.372;2022-08-05T00:20:42;87214.78;;;16.86;56.01
11678;BME280;5895;41.950;24.372;2022-08-05T00:23:09;87211.31;;;16.80;55.84
11678;BME280;5895;41.950;24.372;2022-08-05T00:25:37;87205.00;;;16.76;56.08
11678;BME280;5895;41.950;24.372;2022-08-05T00:28:04;87205.97;;;16.70;56.01
11678;BME280;5895;41.950;24.372;2022-08-05T00:30:32;87208.38;;;16.72;56.33
11678;BME280;5895;41.950;24.372;2022-08-05T00:32:59;87203.91;;;16.72;55.84
11678;BME280;5895;41.950;24.372;2022-08-05T00:35:27;87201.84;;;16.74;56.19
11678;BME280;5895;41.950;24.372;2022-08-05T00:37:56;87202.34;;;16.71;56.19
11678;BME280;5895;41.950;24.372;2022-08-05T00:40:24;87203.16;;;16.77;55.95
11678;BME280;5895;41.950;24.372;2022-08-05T00:42:52;87190.31;;;16.75;56.01
11678;BME280;5895;41.950;24.372;2022-08-05T00:45:20;87199.75;;;16.76;55.57
11678;BME280;5895;41.950;24.372;2022-08-05T00:47:48;87198.97;;;16.76;56.38
11678;BME280;5895;41.950;24.372;2022-08-05T00:50:15;87190.06;;;16.77;56.07
11678;BME280;5895;41.950;24.372;2022-08-05T00:52:43;87189.28;;;16.76;56.36
11678;BME280;5895;41.950;24.372;2022-08-05T00:55:12;87190.81;;;16.72;56.54
11678;BME280;5895;41.950;24.372;2022-08-05T00:57:39;87197.09;;;16.71;56.00
11678;BME280;5895;41.950;24.372;2022-08-05T01:00:08;87186.06;;;16.69;56.44
11678;BME280;5895;41.950;24.372;2022-08-05T01:02:37;87188.69;;;16.69;56.23
11678;BME280;5895;41.950;24.372;2022-08-05T01:05:05;87192.88;;;16.70;56.04
11678;BME280;5895;41.950;24.372;2022-08-05T01:07:32;87195.50;;;16.70;55.91
11678;BME280;5895;41.950;24.372;2022-08-05T01:10:00;87182.97;;;16.72;56.20
11678;BME280;5895;41.950;24.372;2022-08-05T01:12:31;87186.41;;;16.73;56.36
11678;BME280;5895;41.950;24.372;2022-08-05T01:15:02;87184.97;;;16.65;56.83
11678;BME280;5895;41.950;24.372;2022-08-05T01:17:33;87192.34;;;16.68;56.98
11678;BME280;5895;41.950;24.372;2022-08-05T01:20:14;87196.03;;;16.67;57.75
11678;BME280;5895;41.950;24.372;2022-08-05T01:22:57;87190.78;;;16.67;58.08
11678;BME280;5895;41.950;24.372;2022-08-05T01:25:46;87186.03;;;16.64;58.85
11678;BME280;5895;41.950;24.372;2022-08-05T01:28:25;87187.56;;;16.60;58.35
11678;BME280;5895;41.950;24.372;2022-08-05T01:31:00;87185.72;;;16.60;57.92
11678;BME280;5895;41.950;24.372;2022-08-05T01:33:32;87187.34;;;16.61;56.84
11678;BME280;5895;41.950;24.372;2022-08-05T01:36:04;87184.94;;;16.60;56.60
11678;BME280;5895;41.950;24.372;2022-08-05T01:38:33;87183.91;;;16.56;56.41
11678;BME280;5895;41.950;24.372;2022-08-05T01:41:04;87185.97;;;16.54;56.87
11678;BME280;5895;41.950;24.372;2022-08-05T01:43:34;87189.09;;;16.51;57.38
11678;BME280;5895;41.950;24.372;2022-08-05T01:46:03;87183.28;;;16.49;57.03
11678;BME280;5895;41.950;24.372;2022-08-05T01:48:34;87188.53;;;16.49;57.61
11678;BME280;5895;41.950;24.372;2022-08-05T01:51:03;87185.13;;;16.48;56.89
11678;BME280;5895;41.950;24.372;2022-08-05T01:53:33;87188.06;;;16.52;57.45
11678;BME280;5895;41.950;24.372;2022-08-05T01:56:02;87186.47;;;16.51;57.11
11678;BME280;5895;41.950;24.372;2022-08-05T01:58:31;87191.19;;;16.54;56.71
11678;BME280;5895;41.950;24.372;2022-08-05T02:01:02;87183.91;;;16.56;57.26
11678;BME280;5895;41.950;24.372;2022-08-05T02:03:33;87187.81;;;16.58;56.37
11678;BME280;5895;41.950;24.372;2022-08-05T02:06:04;87188.63;;;16.59;56.72
11678;BME280;5895;41.950;24.372;2022-08-05T02:08:32;87183.91;;;16.56;56.60
11678;BME280;5895;41.950;24.372;2022-08-05T02:11:05;87189.13;;;16.56;57.37
11678;BME280;5895;41.950;24.372;2022-08-05T02:13:39;87182.84;;;16.57;57.42
11678;BME280;5895;41.950;24.372;2022-08-05T02:16:14;87182.28;;;16.55;58.08
11678;BME280;5895;41.950;24.372;2022-08-05T02:18:48;87180.44;;;16.50;57.09
11678;BME280;5895;41.950;24.372;2022-08-05T02:21:18;87173.34;;;16.46;57.03
11678;BME280;5895;41.950;24.372;2022-08-05T02:23:48;87179.06;;;16.43;57.89
11678;BME280;5895;41.950;24.372;2022-08-05T02:26:22;87178.78;;;16.39;57.59
11678;BME280;5895;41.950;24.372;2022-08-05T02:28:54;87177.47;;;16.36;57.22
11678;BME280;5895;41.950;24.372;2022-08-05T02:31:26;87179.28;;;16.36;57.78
11678;BME280;5895;41.950;24.372;2022-08-05T02:33:58;87178.50;;;16.35;57.80
11678;BME280;5895;41.950;24.372;2022-08-05T02:36:27;87173.25;;;16.35;57.21
11678;BME280;5895;41.950;24.372;2022-08-05T02:38:56;87171.69;;;16.34;57.12
11678;BME280;5895;41.950;24.372;2022-08-05T02:41:25;87177.72;;;16.35;57.41
11678;BME280;5895;41.950;24.372;2022-08-05T02:43:54;87179.00;;;16.32;57.72
11678;BME280;5895;41.950;24.372;2022-08-05T02:46:25;87183.16;;;16.28;58.00
11678;BME280;5895;41.950;24.372;2022-08-05T02:48:54;87171.59;;;16.24;57.57
11678;BME280;5895;41.950;24.372;2022-08-05T02:51:23;87178.13;;;16.22;57.75
11678;BME280;5895;41.950;24.372;2022-08-05T02:53:52;87178.31;;;16.15;57.65
11678;BME280;5895;41.950;24.372;2022-08-05T02:56:21;87168.31;;;16.07;57.85
11678;BME280;5895;41.950;24.372;2022-08-05T02:58:50;87170.38;;;16.00;58.28
11678;BME280;5895;41.950;24.372;2022-08-05T03:01:20;87167.16;;;15.93;58.53
11678;BME280;5895;41.950;24.372;2022-08-05T03:03:54;87176.00;;;15.86;60.00
11678;BME280;5895;41.950;24.372;2022-08-05T03:06:22;87174.06;;;15.77;58.56
11678;BME280;5895;41.950;24.372;2022-08-05T03:08:52;87173.22;;;15.71;58.84
11678;BME280;5895;41.950;24.372;2022-08-05T03:11:21;87169.78;;;15.66;58.78
11678;BME280;5895;41.950;24.372;2022-08-05T03:13:50;87164.22;;;15.62;59.03
11678;BME280;5895;41.950;24.372;2022-08-05T03:16:18;87163.69;;;15.60;58.97
11678;BME280;5895;41.950;24.372;2022-08-05T03:18:46;87171.50;;;15.55;59.14
11678;BME280;5895;41.950;24.372;2022-08-05T03:21:16;87163.34;;;15.51;59.69
11678;BME280;5895;41.950;24.372;2022-08-05T03:23:43;87168.25;;;15.48;59.14
11678;BME280;5895;41.950;24.372;2022-08-05T03:26:11;87170.34;;;15.46;59.38
11678;BME280;5895;41.950;24.372;2022-08-05T03:28:39;87167.19;;;15.44;59.30
11678;BME280;5895;41.950;24.372;2022-08-05T03:31:07;87160.34;;;15.43;59.45
11678;BME280;5895;41.950;24.372;2022-08-05T03:33:35;87166.34;;;15.38;59.19
11678;BME280;5895;41.950;24.372;2022-08-05T03:36:04;87164.94;;;15.30;59.15
11678;BME280;5895;41.950;24.372;2022-08-05T03:38:39;87169.03;;;15.21;61.15
11678;BME280;5895;41.950;24.372;2022-08-05T03:41:08;87177.28;;;15.13;58.88
11678;BME280;5895;41.950;24.372;2022-08-05T03:43:35;87174.59;;;15.08;59.29
11678;BME280;5895;41.950;24.372;2022-08-05T03:46:03;87158.16;;;15.07;59.67
11678;BME280;5895;41.950;24.372;2022-08-05T03:48:31;87165.72;;;15.09;59.94
11678;BME280;5895;41.950;24.372;2022-08-05T03:51:03;87169.94;;;15.10;61.15
11678;BME280;5895;41.950;24.372;2022-08-05T03:53:38;87170.97;;;15.09;61.20
11678;BME280;5895;41.950;24.372;2022-08-05T03:56:10;87174.13;;;15.11;61.71
11678;BME280;5895;41.950;24.372;2022-08-05T03:58:41;87180.94;;;15.12;60.74
11678;BME280;5895;41.950;24.372;2022-08-05T04:01:11;87178.88;;;15.14;60.37
11678;BME280;5895;41.950;24.372;2022-08-05T04:03:43;87172.13;;;15.18;60.49
11678;BME280;5895;41.950;24.372;2022-08-05T04:06:12;87177.09;;;15.20;60.59
11678;BME280;5895;41.950;24.372;2022-08-05T04:08:42;87168.00;;;15.22;60.61
11678;BME280;5895;41.950;24.372;2022-08-05T04:11:10;87179.03;;;15.29;60.23
11678;BME280;5895;41.950;24.372;2022-08-05T04:13:39;87178.63;;;15.38;59.82
11678;BME280;5895;41.950;24.372;2022-08-05T04:16:07;87177.59;;;15.39;60.23
11678;BME280;5895;41.950;24.372;2022-08-05T04:18:35;87173.41;;;15.38;60.27
11678;BME280;5895;41.950;24.372;2022-08-05T04:21:04;87165.00;;;15.35;60.40
11678;BME280;5895;41.950;24.372;2022-08-05T04:23:33;87168.66;;;15.34;60.87
11678;BME280;5895;41.950;24.372;2022-08-05T04:26:04;87167.06;;;15.33;61.37
11678;BME280;5895;41.950;24.372;2022-08-05T04:28:31;87164.47;;;15.33;60.86
11678;BME280;5895;41.950;24.372;2022-08-05T04:30:59;87163.41;;;15.34;60.75
11678;BME280;5895;41.950;24.372;2022-08-05T04:33:27;87163.41;;;15.34;61.31
11678;BME280;5895;41.950;24.372;2022-08-05T04:35:55;87155.31;;;15.36;60.60
11678;BME280;5895;41.950;24.372;2022-08-05T04:38:22;87151.66;;;15.37;61.11
11678;BME280;5895;41.950;24.372;2022-08-05T04:40:50;87157.72;;;15.38;61.01
11678;BME280;5895;41.950;24.372;2022-08-05T04:43:19;87150.41;;;15.40;61.69
11678;BME280;5895;41.950;24.372;2022-08-05T04:45:46;87162.19;;;15.42;60.98
11678;BME280;5895;41.950;24.372;2022-08-05T04:48:14;87163.53;;;15.45;60.92
11678;BME280;5895;41.950;24.372;2022-08-05T04:50:44;87160.97;;;15.50;60.89
11678;BME280;5895;41.950;24.372;2022-08-05T04:53:13;87157.06;;;15.52;60.98
11678;BME280;5895;41.950;24.372;2022-08-05T04:55:41;87161.56;;;15.57;60.80
11678;BME280;5895;41.950;24.372;2022-08-05T04:58:10;87161.59;;;15.62;61.15
11678;BME280;5895;41.950;24.372;2022-08-05T05:00:41;87153.59;;;15.69;61.31
11678;BME280;5895;41.950;24.372;2022-08-05T05:03:09;87158.63;;;15.75;60.79
11678;BME280;5895;41.950;24.372;2022-08-05T05:05:37;87153.75;;;15.84;60.33
11678;BME280;5895;41.950;24.372;2022-08-05T05:08:06;87142.31;;;15.95;60.46
11678;BME280;5895;41.950;24.372;2022-08-05T05:10:37;87141.09;;;16.08;60.65
11678;BME280;5895;41.950;24.372;2022-08-05T05:13:07;87145.13;;;16.21;59.85
11678;BME280;5895;41.950;24.372;2022-08-05T05:15:35;87150.75;;;16.34;59.58
11678;BME280;5895;41.950;24.372;2022-08-05T05:18:04;87150.81;;;16.45;60.39
11678;BME280;5895;41.950;24.372;2022-08-05T05:20:32;87151.13;;;16.53;60.33
11678;BME280;5895;41.950;24.372;2022-08-05T05:23:01;87138.13;;;16.69;59.58
11678;BME280;5895;41.950;24.372;2022-08-05T05:25:29;87140.31;;;16.82;59.74
11678;BME280;5895;41.950;24.372;2022-08-05T05:27:57;87137.00;;;16.97;58.80
11678;BME280;5895;41.950;24.372;2022-08-05T05:30:25;87135.47;;;17.11;58.90
11678;BME280;5895;41.950;24.372;2022-08-05T05:32:52;87137.88;;;17.23;58.62
11678;BME280;5895;41.950;24.372;2022-08-05T05:35:21;87129.53;;;17.36;59.20
11678;BME280;5895;41.950;24.372;2022-08-05T05:37:50;87143.22;;;17.48;58.57
11678;BME280;5895;41.950;24.372;2022-08-05T05:40:20;87136.69;;;17.61;58.70
11678;BME280;5895;41.950;24.372;2022-08-05T05:42:48;87139.88;;;17.73;58.44
11678;BME280;5895;41.950;24.372;2022-08-05T05:45:16;87143.06;;;17.85;57.84
11678;BME280;5895;41.950;24.372;2022-08-05T05:47:44;87146.25;;;17.97;57.01
11678;BME280;5895;41.950;24.372;2022-08-05T05:50:13;87144.16;;;18.10;57.24
11678;BME280;5895;41.950;24.372;2022-08-05T05:52:43;87148.88;;;18.23;56.55
11678;BME280;5895;41.950;24.372;2022-08-05T05:55:11;87151.50;;;18.33;56.02
11678;BME280;5895;41.950;24.372;2022-08-05T05:57:41;87146.75;;;18.45;56.51
11678;BME280;5895;41.950;24.372;2022-08-05T06:00:11;87155.19;;;18.58;56.14
11678;BME280;5895;41.950;24.372;2022-08-05T06:02:41;87149.94;;;18.68;56.11
11678;BME280;5895;41.950;24.372;2022-08-05T06:05:10;87148.88;;;18.79;56.08
11678;BME280;5895;41.950;24.372;2022-08-05T06:07:37;87143.59;;;18.89;55.43
11678;BME280;5895;41.950;24.372;2022-08-05T06:10:08;87144.63;;;18.98;55.90
11678;BME280;5895;41.950;24.372;2022-08-05T06:12:37;87151.44;;;19.10;55.01
11678;BME280;5895;41.950;24.372;2022-08-05T06:15:06;87146.16;;;19.20;55.04
11678;BME280;5895;41.950;24.372;2022-08-05T06:17:33;87142.97;;;19.28;54.84
11678;BME280;5895;41.950;24.372;2022-08-05T06:20:02;87150.31;;;19.36;54.65
11678;BME280;5895;41.950;24.372;2022-08-05T06:22:32;87138.94;;;19.46;54.84
11678;BME280;5895;41.950;24.372;2022-08-05T06:25:00;87144.47;;;19.49;54.63
11678;BME280;5895;41.950;24.372;2022-08-05T06:27:30;87151.28;;;19.61;54.35
11678;BME280;5895;41.950;24.372;2022-08-05T06:29:58;87154.69;;;19.66;53.79
11678;BME280;5895;41.950;24.372;2022-08-05T06:32:25;87155.97;;;19.74;53.86
11678;BME280;5895;41.950;24.372;2022-08-05T06:34:53;87150.41;;;19.80;54.11
11678;BME280;5895;41.950;24.372;2022-08-05T06:37:21;87156.69;;;19.90;54.09
11678;BME280;5895;41.950;24.372;2022-08-05T06:39:48;87158.47;;;19.99;53.86
11678;BME280;5895;41.950;24.372;2022-08-05T06:42:16;87158.44;;;20.10;53.65
11678;BME280;5895;41.950;24.372;2022-08-05T06:44:45;87160.47;;;20.18;53.51
11678;BME280;5895;41.950;24.372;2022-08-05T06:47:12;87164.63;;;20.24;53.08
11678;BME280;5895;41.950;24.372;2022-08-05T06:49:40;87167.50;;;20.32;53.11
11678;BME280;5895;41.950;24.372;2022-08-05T06:52:08;87165.06;;;20.41;52.94
11678;BME280;5895;41.950;24.372;2022-08-05T06:54:35;87168.72;;;20.50;52.89
11678;BME280;5895;41.950;24.372;2022-08-05T06:57:03;87170.50;;;20.60;52.61
11678;BME280;5895;41.950;24.372;2022-08-05T06:59:31;87160.91;;;20.69;52.47
11678;BME280;5895;41.950;24.372;2022-08-05T07:02:00;87161.63;;;20.80;52.15
11678;BME280;5895;41.950;24.372;2022-08-05T07:04:27;87166.31;;;20.88;52.13
11678;BME280;5895;41.950;24.372;2022-08-05T07:06:55;87165.41;;;20.98;51.85
11678;BME280;5895;41.950;24.372;2022-08-05T07:09:22;87163.47;;;21.08;51.81
11678;BME280;5895;41.950;24.372;2022-08-05T07:11:50;87163.91;;;21.16;51.91
11678;BME280;5895;41.950;24.372;2022-08-05T07:14:20;87165.19;;;21.23;51.65
11678;BME280;5895;41.950;24.372;2022-08-05T07:17:06;87173.28;;;21.32;51.46
11678;BME280;5895;41.950;24.372;2022-08-05T07:19:33;87175.34;;;21.40;51.27
11678;BME280;5895;41.950;24.372;2022-08-05T07:22:01;87171.00;;;21.49;50.97
11678;BME280;5895;41.950;24.372;2022-08-05T07:24:29;87171.97;;;21.58;50.51
11678;BME280;5895;41.950;24.372;2022-08-05T07:26:56;87168.44;;;21.68;50.41
11678;BME280;5895;41.950;24.372;2022-08-05T07:29:24;87169.16;;;21.74;50.19
11678;BME280;5895;41.950;24.372;2022-08-05T07:31:51;87173.00;;;21.81;50.08
11678;BME280;5895;41.950;24.372;2022-08-05T07:34:20;87175.06;;;21.89;49.84
11678;BME280;5895;41.950;24.372;2022-08-05T07:36:48;87164.84;;;22.02;50.14
11678;BME280;5895;41.950;24.372;2022-08-05T07:39:15;87177.69;;;22.13;49.31
11678;BME280;5895;41.950;24.372;2022-08-05T07:41:43;87179.66;;;22.22;48.85
11678;BME280;5895;41.950;24.372;2022-08-05T07:44:11;87175.97;;;22.23;49.41
11678;BME280;5895;41.950;24.372;2022-08-05T07:46:38;87178.03;;;22.26;49.10
11678;BME280;5895;41.950;24.372;2022-08-05T07:49:06;87175.81;;;22.33;49.28
11678;BME280;5895;41.950;24.372;2022-08-05T07:51:36;87182.13;;;22.37;48.76
11678;BME280;5895;41.950;24.372;2022-08-05T07:54:04;87177.06;;;22.40;48.63
11678;BME280;5895;41.950;24.372;2022-08-05T07:56:32;87174.03;;;22.47;48.63
11678;BME280;5895;41.950;24.372;2022-08-05T07:59:00;87176.81;;;22.56;48.61
11678;BME280;5895;41.950;24.372;2022-08-05T08:01:27;87174.81;;;22.66;48.70
11678;BME280;5895;41.950;24.372;2022-08-05T08:03:55;87174.66;;;22.77;48.31
11678;BME280;5895;41.950;24.372;2022-08-05T08:06:22;87183.53;;;22.86;48.51
11678;BME280;5895;41.950;24.372;2022-08-05T08:08:51;87179.59;;;22.83;48.44
11678;BME280;5895;41.950;24.372;2022-08-05T08:11:19;87177.31;;;22.95;48.25
11678;BME280;5895;41.950;24.372;2022-08-05T08:13:46;87176.94;;;23.02;48.17
11678;BME280;5895;41.950;24.372;2022-08-05T08:16:14;87181.94;;;23.04;48.10
11678;BME280;5895;41.950;24.372;2022-08-05T08:18:42;87170.78;;;23.07;48.00
11678;BME280;5895;41.950;24.372;2022-08-05T08:21:10;87191.84;;;23.12;48.29
11678;BME280;5895;41.950;24.372;2022-08-05T08:23:38;87188.56;;;23.20;47.59
11678;BME280;5895;41.950;24.372;2022-08-05T08:26:07;87182.41;;;23.25;47.77
11678;BME280;5895;41.950;24.372;2022-08-05T08:28:34;87192.31;;;23.33;47.64
11678;BME280;5895;41.950;24.372;2022-08-05T08:31:02;87182.81;;;23.45;47.48
11678;BME280;5895;41.950;24.372;2022-08-05T08:33:30;87186.06;;;23.56;47.48
11678;BME280;5895;41.950;24.372;2022-08-05T08:35:57;87186.53;;;23.77;47.27
11678;BME280;5895;41.950;24.372;2022-08-05T08:38:24;87185.75;;;23.77;47.59
11678;BME280;5895;41.950;24.372;2022-08-05T08:40:52;87185.56;;;23.87;46.96
11678;BME280;5895;41.950;24.372;2022-08-05T08:43:22;87185.56;;;23.87;46.88
11678;BME280;5895;41.950;24.372;2022-08-05T08:45:52;87186.41;;;23.96;47.41
11678;BME280;5895;41.950;24.372;2022-08-05T08:48:21;87189.47;;;24.17;47.02
11678;BME280;5895;41.950;24.372;2022-08-05T08:50:49;87198.41;;;24.35;46.78
11678;BME280;5895;41.950;24.372;2022-08-05T08:53:17;87179.63;;;24.45;46.64
11678;BME280;5895;41.950;24.372;2022-08-05T08:55:45;87190.69;;;24.61;46.68
11678;BME280;5895;41.950;24.372;2022-08-05T08:58:14;87192.72;;;24.77;46.20
11678;BME280;5895;41.950;24.372;2022-08-05T09:00:44;87197.69;;;24.93;45.83
11678;BME280;5895;41.950;24.372;2022-08-05T09:03:13;87187.31;;;25.05;46.18
11678;BME280;5895;41.950;24.372;2022-08-05T09:05:41;87187.34;;;25.27;46.16
11678;BME280;5895;41.950;24.372;2022-08-05T09:08:08;87182.50;;;25.29;46.09
11678;BME280;5895;41.950;24.372;2022-08-05T09:10:39;87179.25;;;25.32;44.50
11678;BME280;5895;41.950;24.372;2022-08-05T09:13:09;87174.94;;;25.14;46.01
11678;BME280;5895;41.950;24.372;2022-08-05T09:15:37;87181.25;;;24.91;46.18
11678;BME280;5895;41.950;24.372;2022-08-05T09:18:07;87170.50;;;24.73;45.67
11678;BME280;5895;41.950;24.372;2022-08-05T09:20:35;87176.75;;;24.91;46.50
11678;BME280;5895;41.950;24.372;2022-08-05T09:23:11;87171.53;;;25.22;44.39
11678;BME280;5895;41.950;24.372;2022-08-05T09:25:40;87162.09;;;25.39;45.86
11678;BME280;5895;41.950;24.372;2022-08-05T09:28:12;87168.50;;;25.38;45.92
11678;BME280;5895;41.950;24.372;2022-08-05T09:30:51;87172.41;;;25.40;44.23
11678;BME280;5895;41.950;24.372;2022-08-05T09:33:22;87165.09;;;25.46;44.21
11678;BME280;5895;41.950;24.372;2022-08-05T09:35:57;87162.53;;;25.63;42.04
11678;BME280;5895;41.950;24.372;2022-08-05T09:38:25;87169.56;;;25.90;44.81
11678;BME280;5895;41.950;24.372;2022-08-05T09:40:54;87170.25;;;26.04;44.84
11678;BME280;5895;41.950;24.372;2022-08-05T09:43:30;87155.41;;;26.12;43.95
11678;BME280;5895;41.950;24.372;2022-08-05T09:45:58;87162.78;;;26.15;44.36
11678;BME280;5895;41.950;24.372;2022-08-05T09:48:29;87161.38;;;26.26;43.19
11678;BME280;5895;41.950;24.372;2022-08-05T09:50:59;87160.38;;;26.53;43.96
11678;BME280;5895;41.950;24.372;2022-08-05T09:53:28;87161.94;;;26.54;43.69
11678;BME280;5895;41.950;24.372;2022-08-05T09:55:57;87165.25;;;26.60;43.82
11678;BME280;5895;41.950;24.372;2022-08-05T09:58:26;87159.97;;;26.77;43.25
11678;BME280;5895;41.950;24.372;2022-08-05T10:00:59;87166.56;;;26.88;43.41
11678;BME280;5895;41.950;24.372;2022-08-05T10:03:28;87162.16;;;27.01;42.54
11678;BME280;5895;41.950;24.372;2022-08-05T10:06:04;87153.84;;;27.03;39.77
11678;BME280;5895;41.950;24.372;2022-08-05T10:08:35;87157.78;;;27.14;43.23
11678;BME280;5895;41.950;24.372;2022-08-05T10:11:04;87167.66;;;27.13;43.11
11678;BME280;5895;41.950;24.372;2022-08-05T10:13:39;87165.31;;;26.95;43.74
11678;BME280;5895;41.950;24.372;2022-08-05T10:16:28;87159.63;;;27.05;38.74
11678;BME280;5895;41.950;24.372;2022-08-05T10:18:59;87149.66;;;27.19;42.66
11678;BME280;5895;41.950;24.372;2022-08-05T10:21:27;87155.59;;;27.33;42.96
11678;BME280;5895;41.950;24.372;2022-08-05T10:23:55;87143.94;;;27.55;43.08
11678;BME280;5895;41.950;24.372;2022-08-05T10:26:23;87145.81;;;27.55;42.93
11678;BME280;5895;41.950;24.372;2022-08-05T10:28:50;87142.84;;;27.56;42.77
11678;BME280;5895;41.950;24.372;2022-08-05T10:31:18;87143.91;;;27.64;42.85
11678;BME280;5895;41.950;24.372;2022-08-05T10:33:46;87142.69;;;27.70;42.57
11678;BME280;5895;41.950;24.372;2022-08-05T10:36:15;87138.13;;;27.79;42.66
11678;BME280;5895;41.950;24.372;2022-08-05T10:38:44;87145.69;;;28.07;42.15
11678;BME280;5895;41.950;24.372;2022-08-05T10:41:18;87141.91;;;27.70;39.99
11678;BME280;5895;41.950;24.372;2022-08-05T10:43:56;87138.41;;;27.69;40.51
11678;BME280;5895;41.950;24.372;2022-08-05T10:46:42;87145.13;;;27.92;37.56
11678;BME280;5895;41.950;24.372;2022-08-05T10:49:10;87148.19;;;28.12;42.22
11678;BME280;5895;41.950;24.372;2022-08-05T10:51:44;87137.53;;;28.12;38.35
11678;BME280;5895;41.950;24.372;2022-08-05T10:54:12;87144.84;;;28.24;41.89
11678;BME280;5895;41.950;24.372;2022-08-05T10:56:45;87140.22;;;28.41;38.22
11678;BME280;5895;41.950;24.372;2022-08-05T10:59:16;87133.75;;;28.13;39.69
11678;BME280;5895;41.950;24.372;2022-08-05T11:01:44;87138.53;;;28.28;41.44
11678;BME280;5895;41.950;24.372;2022-08-05T11:04:13;87129.72;;;28.36;40.92
11678;BME280;5895;41.950;24.372;2022-08-05T11:07:05;87139.47;;;28.62;36.35
11678;BME280;5895;41.950;24.372;2022-08-05T11:09:38;87122.66;;;28.61;38.68
11678;BME280;5895;41.950;24.372;2022-08-05T11:15:15;87127.41;;;29.06;35.76
11678;BME280;5895;41.950;24.372;2022-08-05T11:17:44;87122.44;;;29.17;40.07
11678;BME280;5895;41.950;24.372;2022-08-05T11:20:41;87127.16;;;29.20;36.41
11678;BME280;5895;41.950;24.372;2022-08-05T11:23:35;87120.09;;;29.36;35.41
11678;BME280;5895;41.950;24.372;2022-08-05T11:26:07;87132.09;;;29.30;40.40
11678;BME280;5895;41.950;24.372;2022-08-05T11:28:43;87133.91;;;29.38;37.75
11678;BME280;5895;41.950;24.372;2022-08-05T11:31:24;87115.13;;;29.26;35.46
11678;BME280;5895;41.950;24.372;2022-08-05T11:33:58;87123.03;;;29.22;39.85
11678;BME280;5895;41.950;24.372;2022-08-05T11:36:49;87112.41;;;29.14;36.04
11678;BME280;5895;41.950;24.372;2022-08-05T11:39:49;87113.31;;;29.18;34.51
11678;BME280;5895;41.950;24.372;2022-08-05T11:42:22;87120.97;;;29.40;35.42
11678;BME280;5895;41.950;24.372;2022-08-05T11:44:54;87117.63;;;29.31;39.15
11678;BME280;5895;41.950;24.372;2022-08-05T11:47:27;87111.34;;;29.27;40.24
11678;BME280;5895;41.950;24.372;2022-08-05T11:49:56;87121.25;;;29.27;39.49
11678;BME280;5895;41.950;24.372;2022-08-05T11:52:26;87108.22;;;29.25;40.30
11678;BME280;5895;41.950;24.372;2022-08-05T11:54:56;87111.59;;;29.34;39.50
11678;BME280;5895;41.950;24.372;2022-08-05T11:57:27;87109.63;;;29.43;36.02
11678;BME280;5895;41.950;24.372;2022-08-05T11:59:56;87113.94;;;29.57;39.94
11678;BME280;5895;41.950;24.372;2022-08-05T12:02:25;87110.63;;;29.72;39.42
11678;BME280;5895;41.950;24.372;2022-08-05T12:04:57;87114.41;;;29.71;39.22
11678;BME280;5895;41.950;24.372;2022-08-05T12:07:32;87105.63;;;29.83;35.21
11678;BME280;5895;41.950;24.372;2022-08-05T12:10:03;87102.41;;;29.77;37.46
11678;BME280;5895;41.950;24.372;2022-08-05T12:12:32;87107.78;;;30.01;39.37
11678;BME280;5895;41.950;24.372;2022-08-05T12:14:59;87105.59;;;30.28;39.43
11678;BME280;5895;41.950;24.372;2022-08-05T12:17:35;87101.34;;;30.39;34.98
11678;BME280;5895;41.950;24.372;2022-08-05T12:20:06;87099.13;;;30.41;36.81
11678;BME280;5895;41.950;24.372;2022-08-05T12:22:34;87096.00;;;30.51;38.80
11678;BME280;5895;41.950;24.372;2022-08-05T12:25:03;87099.03;;;30.38;38.34
11678;BME280;5895;41.950;24.372;2022-08-05T12:27:32;87098.34;;;30.41;38.37
11678;BME280;5895;41.950;24.372;2022-08-05T12:30:02;87089.09;;;30.38;37.78
11678;BME280;5895;41.950;24.372;2022-08-05T12:32:31;87092.19;;;30.40;38.39
11678;BME280;5895;41.950;24.372;2022-08-05T12:35:02;87090.88;;;30.46;38.09
11678;BME280;5895;41.950;24.372;2022-08-05T12:37:31;87081.06;;;30.38;38.13
11678;BME280;5895;41.950;24.372;2022-08-05T12:39:59;87082.97;;;30.38;38.86
11678;BME280;5895;41.950;24.372;2022-08-05T12:42:29;87093.31;;;30.51;35.86
11678;BME280;5895;41.950;24.372;2022-08-05T12:45:05;87078.38;;;30.38;32.96
11678;BME280;5895;41.950;24.372;2022-08-05T12:47:33;87076.59;;;30.18;39.12
11678;BME280;5895;41.950;24.372;2022-08-05T12:50:12;87077.81;;;30.08;35.32
11678;BME280;5895;41.950;24.372;2022-08-05T12:52:41;87071.72;;;30.20;39.10
11678;BME280;5895;41.950;24.372;2022-08-05T12:55:16;87076.13;;;30.40;35.21
11678;BME280;5895;41.950;24.372;2022-08-05T12:57:46;87081.50;;;30.40;38.29
11678;BME280;5895;41.950;24.372;2022-08-05T13:00:19;87084.63;;;30.42;35.59
11678;BME280;5895;41.950;24.372;2022-08-05T13:02:47;87085.06;;;30.56;38.35
11678;BME280;5895;41.950;24.372;2022-08-05T13:05:15;87079.06;;;30.47;38.28
11678;BME280;5895;41.950;24.372;2022-08-05T13:07:44;87074.81;;;30.34;38.46
11678;BME280;5895;41.950;24.372;2022-08-05T13:10:14;87080.59;;;30.12;39.06
11678;BME280;5895;41.950;24.372;2022-08-05T13:12:45;87079.72;;;30.20;38.74
11678;BME280;5895;41.950;24.372;2022-08-05T13:15:13;87077.59;;;30.38;39.07
11678;BME280;5895;41.950;24.372;2022-08-05T13:17:52;87078.72;;;30.37;35.48